Time;durP1;ratioP1;P1;durP2;ratioP2;P2;SDS_P1;SDS_P2;PMS_P1;PMS_P2;Temp;Humidity;BMP_temperature;BMP_pressure;BME280_temperature;BME280_humidity;BME280_pressure;Samples;Min_cycle;Max_cycle;Signal;HPM_P1;HPM_P2
2023/06/25 00:00:14;;;;;;;5.80;3.30;;;;;;;18.63;100.00;97316.13;110219;1243;58898;-66
2023/06/25 00:03:07;;;;;;;5.90;2.80;;;;;;;18.60;100.00;97320.72;110234;1240;58817;-66
2023/06/25 00:05:37;;;;;;;5.50;2.90;;;;;;;18.55;100.00;97333.21;110237;1240;70525;-66
2023/06/25 00:08:07;;;;;;;7.80;3.00;;;;;;;18.48;100.00;97335.20;110275;1242;69149;-64
2023/06/25 00:10:37;;;;;;;6.00;3.30;;;;;;;18.39;100.00;97334.75;110277;1244;69237;-65
2023/06/25 00:13:07;;;;;;;6.60;3.40;;;;;;;18.33;100.00;97341.48;110242;1241;58949;-65
2023/06/25 00:15:36;;;;;;;5.90;3.10;;;;;;;18.29;100.00;97339.32;110281;1243;58832;-66
2023/06/25 00:18:08;;;;;;;5.30;3.20;;;;;;;18.27;100.00;97341.17;110230;1240;69525;-65
2023/06/25 00:20:38;;;;;;;6.10;3.20;;;;;;;18.24;100.00;97343.90;110267;1242;67539;-66
2023/06/25 00:23:08;;;;;;;5.90;3.20;;;;;;;18.21;100.00;97339.44;110240;1242;69687;-66
2023/06/25 00:25:37;;;;;;;8.60;3.70;;;;;;;18.19;100.00;97342.14;110269;1240;58889;-66
2023/06/25 00:28:09;;;;;;;;;;;;;;;18.15;100.00;97343.41;110319;1240;58951;-65
2023/06/25 00:30:39;;;;;;;7.10;3.20;;;;;;;18.12;100.00;97348.20;110241;1240;69819;-65
2023/06/25 00:33:12;;;;;;;5.40;3.00;;;;;;;18.08;100.00;97349.08;110113;1243;68355;-66
2023/06/25 00:35:51;;;;;;;6.00;3.30;;;;;;;18.01;100.00;97351.80;110166;1241;69736;-65
2023/06/25 00:38:22;;;;;;;10.30;4.00;;;;;;;17.94;100.00;97346.91;110165;1241;58974;-65
2023/06/25 00:40:51;;;;;;;6.00;3.20;;;;;;;17.88;100.00;97345.90;110162;1240;58952;-66
2023/06/25 00:43:22;;;;;;;;;;;;;;;17.83;100.00;97341.88;110156;1241;70501;-65
2023/06/25 00:45:53;;;;;;;6.90;3.40;;;;;;;17.77;100.00;97339.14;110141;1241;69608;-65
2023/06/25 00:48:24;;;;;;;7.00;3.30;;;;;;;17.73;100.00;97337.58;110169;1243;69279;-65
2023/06/25 00:51:00;;;;;;;6.30;3.70;;;;;;;17.71;100.00;97341.79;110095;1243;58849;-65
2023/06/25 00:53:37;;;;;;;6.70;3.10;;;;;;;17.70;100.00;97345.23;110188;1246;58966;-65
2023/06/25 00:56:09;;;;;;;5.70;3.50;;;;;;;17.71;100.00;97351.86;110113;1243;69617;-65
2023/06/25 00:58:40;;;;;;;7.80;3.70;;;;;;;17.70;100.00;97350.73;110134;1243;68134;-66
2023/06/25 01:01:20;;;;;;;6.90;3.60;;;;;;;17.67;100.00;97353.49;110111;1242;69202;-66
2023/06/25 01:03:57;;;;;;;8.60;3.70;;;;;;;17.58;100.00;97355.09;110128;1243;59008;-66
2023/06/25 01:06:33;;;;;;;5.60;3.50;;;;;;;17.50;100.00;97353.30;110134;1244;59340;-65
2023/06/25 01:09:06;;;;;;;7.80;3.60;;;;;;;17.46;100.00;97350.53;110106;1244;70935;-65
2023/06/25 01:11:37;;;;;;;6.20;3.20;;;;;;;17.45;100.00;97346.63;110077;1244;69643;-65
2023/06/25 01:14:06;;;;;;;5.90;3.00;;;;;;;17.42;100.00;97344.63;110035;1244;69896;-65
2023/06/25 01:16:38;;;;;;;6.90;3.80;;;;;;;17.42;100.00;97343.79;110084;1245;58862;-65
2023/06/25 01:19:07;;;;;;;7.70;3.60;;;;;;;17.39;100.00;97347.02;110150;1243;58799;-65
2023/06/25 01:21:41;;;;;;;5.00;3.20;;;;;;;17.34;100.00;97345.11;110120;1243;71140;-66
2023/06/25 01:24:13;;;;;;;7.40;3.60;;;;;;;17.32;100.00;97340.83;110158;1246;68419;-66
2023/06/25 01:26:45;;;;;;;6.70;3.60;;;;;;;17.31;100.00;97335.48;110117;1243;68616;-67
2023/06/25 01:29:14;;;;;;;9.90;3.70;;;;;;;17.32;100.00;97329.63;110129;1243;59404;-66
2023/06/25 01:31:44;;;;;;;6.60;3.30;;;;;;;17.29;100.00;97324.25;110121;1244;58894;-66
2023/06/25 01:34:14;;;;;;;;;;;;;;;17.27;100.00;97328.65;110310;1242;70436;-66
2023/06/25 01:36:45;;;;;;;7.30;3.40;;;;;;;17.23;100.00;97326.25;110246;1240;68346;-67
2023/06/25 01:39:21;;;;;;;7.60;3.90;;;;;;;17.21;100.00;97329.30;110195;1243;69382;-66
2023/06/25 01:41:51;;;;;;;10.60;4.20;;;;;;;17.17;100.00;97332.91;110273;1243;58928;-67
2023/06/25 01:44:32;;;;;;;7.30;4.30;;;;;;;17.13;100.00;97331.16;110262;1243;58875;-64
2023/06/25 01:47:02;;;;;;;5.80;3.40;;;;;;;17.10;100.00;97327.27;110304;1247;70707;-65
2023/06/25 01:49:33;;;;;;;6.70;3.50;;;;;;;17.09;100.00;97320.98;110266;1242;68686;-65
2023/06/25 01:52:05;;;;;;;6.70;3.70;;;;;;;17.10;100.00;97319.69;110243;1244;68323;-66
2023/06/25 01:54:37;;;;;;;5.80;3.30;;;;;;;17.10;100.00;97314.42;110241;1241;58871;-66
2023/06/25 01:57:07;;;;;;;8.30;4.00;;;;;;;17.08;100.00;97311.75;110192;1244;58899;-65
2023/06/25 01:59:38;;;;;;;8.60;4.20;;;;;;;17.04;100.00;97311.13;110160;1240;71512;-64
2023/06/25 02:02:10;;;;;;;14.20;4.50;;;;;;;16.98;100.00;97307.83;110280;1241;68552;-64
2023/06/25 02:04:41;;;;;;;6.60;4.00;;;;;;;16.93;100.00;97307.12;110289;1240;69093;-65
2023/06/25 02:07:13;;;;;;;8.60;3.90;;;;;;;16.89;100.00;97307.69;110146;1244;59329;-64
2023/06/25 02:09:45;;;;;;;8.60;4.00;;;;;;;16.84;100.00;97303.64;110255;1240;58908;-65
2023/06/25 02:12:17;;;;;;;9.90;4.20;;;;;;;16.82;100.00;97303.16;110296;1243;69894;-66
2023/06/25 02:14:52;;;;;;;6.40;4.70;;;;;;;16.80;100.00;97308.21;110302;1244;69269;-66
2023/06/25 02:17:25;;;;;;;7.90;3.40;;;;;;;16.79;100.00;97310.09;110237;1242;69229;-65
2023/06/25 02:19:55;;;;;;;9.00;4.60;;;;;;;16.79;100.00;97306.37;110256;1241;58921;-66
2023/06/25 02:22:26;;;;;;;5.10;3.60;;;;;;;16.80;100.00;97302.41;110286;1242;58854;-65
2023/06/25 02:24:56;;;;;;;9.80;4.60;;;;;;;16.80;100.00;97296.96;110261;1242;69870;-66
2023/06/25 02:27:26;;;;;;;24.50;8.40;;;;;;;16.79;100.00;97294.59;110132;1240;68831;-65
2023/06/25 02:29:57;;;;;;;20.70;8.10;;;;;;;16.76;100.00;97292.77;110305;1242;68405;-66
2023/06/25 02:32:27;;;;;;;18.40;6.80;;;;;;;16.76;100.00;97293.89;110144;1244;58895;-65
2023/06/25 02:34:57;;;;;;;21.60;8.60;;;;;;;16.74;100.00;97291.45;110261;1240;58886;-65
2023/06/25 02:37:28;;;;;;;20.90;9.90;;;;;;;16.71;100.00;97290.23;110313;1245;70043;-66
2023/06/25 02:40:01;;;;;;;18.40;8.80;;;;;;;16.71;100.00;97287.30;110259;1240;68760;-66
2023/06/25 02:42:34;;;;;;;15.00;6.80;;;;;;;16.73;100.00;97286.73;110164;1243;69161;-65
2023/06/25 02:45:10;;;;;;;15.80;6.90;;;;;;;16.79;100.00;97284.59;110289;1244;59015;-65
2023/06/25 02:47:42;;;;;;;11.20;5.70;;;;;;;16.83;100.00;97295.52;110214;1244;58867;-65
2023/06/25 02:50:15;;;;;;;11.00;5.10;;;;;;;16.85;100.00;97299.67;110226;1241;70823;-65
2023/06/25 02:52:50;;;;;;;9.90;4.30;;;;;;;16.86;100.00;97303.30;110132;1244;68086;-65
2023/06/25 02:55:26;;;;;;;11.40;4.30;;;;;;;16.85;100.00;97309.48;110299;1240;68665;-65
2023/06/25 02:57:57;;;;;;;6.70;3.50;;;;;;;16.85;100.00;97311.65;110238;1240;58860;-65
2023/06/25 03:00:28;;;;;;;7.20;3.80;;;;;;;16.86;100.00;97312.80;110151;1244;58881;-64
2023/06/25 03:02:59;;;;;;;7.30;4.20;;;;;;;16.88;100.00;97310.13;110210;1241;70556;-65
2023/06/25 03:05:33;;;;;;;9.10;4.70;;;;;;;16.91;100.00;97309.30;110218;1243;69062;-64
2023/06/25 03:08:06;;;;;;;7.10;4.10;;;;;;;16.92;100.00;97315.86;110226;1240;69357;-65
2023/06/25 03:10:38;;;;;;;8.50;4.40;;;;;;;16.97;100.00;97320.66;110149;1246;58924;-63
2023/06/25 03:13:11;;;;;;;7.20;3.80;;;;;;;17.01;100.00;97319.50;110209;1240;58918;-64
2023/06/25 03:15:42;;;;;;;8.40;4.60;;;;;;;17.04;100.00;97319.91;110228;1240;70597;-63
2023/06/25 03:18:12;;;;;;;6.50;3.70;;;;;;;17.07;100.00;97318.39;110250;1242;69710;-63
2023/06/25 03:20:44;;;;;;;7.70;3.80;;;;;;;17.12;100.00;97321.74;110214;1240;69260;-64
2023/06/25 03:23:14;;;;;;;6.70;3.80;;;;;;;17.17;100.00;97318.58;110264;1242;58906;-65
2023/06/25 03:25:46;;;;;;;8.70;4.10;;;;;;;17.21;100.00;97313.07;110266;1242;58918;-65
2023/06/25 03:28:25;;;;;;;10.70;4.20;;;;;;;17.24;100.00;97311.76;110231;1242;71187;-66
2023/06/25 03:30:55;;;;;;;5.60;3.50;;;;;;;17.24;100.00;97307.48;110165;1244;68484;-66
2023/06/25 03:33:26;;;;;;;6.00;2.90;;;;;;;17.27;100.00;97311.60;110191;1240;68523;-65
2023/06/25 03:35:58;;;;;;;6.30;3.70;;;;;;;17.28;100.00;97317.48;110317;1245;58978;-65
2023/06/25 03:38:28;;;;;;;5.40;3.30;;;;;;;17.28;100.00;97320.80;110254;1245;58951;-64
2023/06/25 03:40:59;;;;;;;6.90;3.80;;;;;;;17.29;100.00;97325.08;110204;1244;69799;-65
2023/06/25 03:43:29;;;;;;;;;;;;;;;17.33;100.00;97323.23;110273;1245;69859;-65
2023/06/25 03:45:59;;;;;;;6.00;3.10;;;;;;;17.36;100.00;97320.42;110142;1244;69480;-66
2023/06/25 03:48:29;;;;;;;8.00;3.80;;;;;;;17.41;100.00;97319.22;110262;1242;58864;-66
2023/06/25 03:51:00;;;;;;;6.00;3.80;;;;;;;17.42;100.00;97316.42;110297;1242;58938;-66
2023/06/25 03:53:30;;;;;;;6.30;3.70;;;;;;;17.45;100.00;97315.75;110286;1242;69964;-66
2023/06/25 03:56:00;;;;;;;7.10;4.00;;;;;;;17.52;100.00;97316.11;110318;1242;68257;-66
2023/06/25 03:58:34;;;;;;;6.50;3.50;;;;;;;17.58;100.00;97319.73;110233;1242;68312;-64
2023/06/25 04:01:05;;;;;;;6.60;3.70;;;;;;;17.69;100.00;97322.25;110260;1243;58895;-66
2023/06/25 04:03:35;;;;;;;7.70;3.70;;;;;;;17.76;100.00;97322.61;110214;1243;58943;-66
2023/06/25 04:06:06;;;;;;;8.30;3.80;;;;;;;17.88;100.00;97328.27;110257;1240;70608;-66
2023/06/25 04:08:40;;;;;;;8.90;3.80;;;;;;;17.97;100.00;97327.11;110179;1244;69058;-66
2023/06/25 04:11:10;;;;;;;6.90;3.40;;;;;;;18.01;100.00;97326.08;110226;1240;69110;-66
2023/06/25 04:13:41;;;;;;;8.00;3.50;;;;;;;18.08;100.00;97329.77;110191;1243;59211;-66
2023/06/25 04:16:12;;;;;;;7.50;3.70;;;;;;;18.11;100.00;97325.55;110223;1240;58925;-67
2023/06/25 04:18:42;;;;;;;5.80;3.70;;;;;;;18.15;100.00;97326.32;110237;1244;69862;-66
2023/06/25 04:21:14;;;;;;;8.70;3.40;;;;;;;18.24;100.00;97327.14;110345;1240;68381;-65
2023/06/25 04:23:46;;;;;;;7.40;3.70;;;;;;;18.35;100.00;97325.48;110268;1243;70026;-66
2023/06/25 04:26:18;;;;;;;7.50;3.50;;;;;;;18.44;100.00;97319.45;110276;1240;58906;-66
2023/06/25 04:28:48;;;;;;;7.80;3.80;;;;;;;18.53;100.00;97316.11;110165;1244;59287;-66
2023/06/25 04:31:18;;;;;;;5.70;3.50;;;;;;;18.53;100.00;97320.19;110459;1242;70580;-67
2023/06/25 04:33:48;;;;;;;7.00;3.10;;;;;;;18.55;100.00;97321.02;110233;1243;69243;-65
2023/06/25 04:36:19;;;;;;;6.60;3.30;;;;;;;18.62;100.00;97319.16;110240;1240;69272;-65
2023/06/25 04:38:54;;;;;;;7.30;4.20;;;;;;;18.74;100.00;97319.34;110248;1240;58945;-65
2023/06/25 04:41:29;;;;;;;6.50;3.40;;;;;;;18.76;100.00;97316.68;110235;1242;58879;-66
2023/06/25 04:43:58;;;;;;;9.10;3.60;;;;;;;18.74;100.00;97318.88;110148;1245;70436;-65
2023/06/25 04:46:29;;;;;;;6.70;3.90;;;;;;;18.66;100.00;97323.17;110167;1240;69807;-65
2023/06/25 04:49:01;;;;;;;7.90;4.00;;;;;;;18.69;100.00;97323.23;110238;1242;69465;-67
2023/06/25 04:51:34;;;;;;;7.80;4.10;;;;;;;18.70;100.00;97318.58;110246;1244;58959;-66
2023/06/25 04:54:04;;;;;;;7.40;3.60;;;;;;;18.72;100.00;97316.77;110255;1240;58923;-65
2023/06/25 04:56:34;;;;;;;6.80;3.60;;;;;;;18.72;100.00;97314.64;110181;1241;70593;-67
2023/06/25 04:59:04;;;;;;;5.60;3.60;;;;;;;18.74;100.00;97314.27;110402;1242;69066;-66
2023/06/25 05:01:33;;;;;;;10.00;4.10;;;;;;;18.82;100.00;97314.81;110304;1242;69286;-66
2023/06/25 05:04:03;;;;;;;10.30;4.00;;;;;;;18.85;100.00;97314.90;110278;1243;59004;-65
2023/06/25 05:06:33;;;;;;;8.40;4.90;;;;;;;18.86;100.00;97314.73;110293;1240;58979;-65
2023/06/25 05:09:02;;;;;;;;;;;;;;;18.97;100.00;97308.64;110286;1240;70436;-65
2023/06/25 05:11:33;;;;;;;9.40;4.30;;;;;;;19.13;100.00;97305.81;110343;1241;69415;-67
2023/06/25 05:14:04;;;;;;;8.70;4.20;;;;;;;19.35;100.00;97306.60;110330;1242;69369;-67
2023/06/25 05:16:34;;;;;;;7.60;3.60;;;;;;;19.75;100.00;97302.63;110251;1242;58950;-64
2023/06/25 05:19:04;;;;;;;7.30;3.70;;;;;;;20.18;100.00;97302.25;110280;1246;58807;-66
2023/06/25 05:21:33;;;;;;;7.00;3.20;;;;;;;20.64;100.00;97300.77;110272;1240;70421;-65
2023/06/25 05:24:04;;;;;;;5.30;2.80;;;;;;;21.14;99.46;97310.61;110268;1244;69220;-65
2023/06/25 05:26:33;;;;;;;7.30;3.50;;;;;;;21.52;99.19;97307.95;110296;1243;69702;-67
2023/06/25 05:29:02;;;;;;;10.90;3.70;;;;;;;21.67;96.85;97306.48;110278;1243;58936;-66
2023/06/25 05:31:31;;;;;;;7.30;3.20;;;;;;;21.58;94.97;97305.94;110262;1242;58892;-65
2023/06/25 05:34:01;;;;;;;8.80;3.60;;;;;;;21.42;94.65;97305.55;110297;1244;70668;-67
2023/06/25 05:36:31;;;;;;;5.30;3.10;;;;;;;21.31;95.87;97302.73;110302;1242;69735;-66
2023/06/25 05:39:01;;;;;;;7.70;3.50;;;;;;;21.25;96.03;97300.82;110330;1243;69915;-65
2023/06/25 05:41:30;;;;;;;6.30;3.20;;;;;;;21.13;95.86;97296.66;110261;1242;59267;-65
2023/06/25 05:44:01;;;;;;;10.10;4.20;;;;;;;21.22;96.51;97303.98;110259;1243;58886;-65
2023/06/25 05:46:30;;;;;;;6.10;3.60;;;;;;;21.24;96.65;97302.48;110265;1240;71243;-65
2023/06/25 05:49:00;;;;;;;8.20;3.20;;;;;;;21.18;95.43;97303.70;110288;1242;69221;-65
2023/06/25 05:51:29;;;;;;;6.30;3.60;;;;;;;21.22;96.35;97306.77;110316;1241;69275;-65
2023/06/25 05:53:58;;;;;;;7.80;4.00;;;;;;;21.16;96.77;97304.85;110280;1244;58884;-65
2023/06/25 05:56:27;;;;;;;;;;;;;;;21.22;97.46;97309.07;110295;1240;58836;-64
2023/06/25 05:58:57;;;;;;;6.30;3.50;;;;;;;21.34;95.91;97308.74;110233;1243;70707;-64
2023/06/25 06:01:27;;;;;;;7.40;3.90;;;;;;;21.40;96.53;97311.05;110286;1243;69417;-65
2023/06/25 06:03:56;;;;;;;8.30;4.50;;;;;;;21.64;95.45;97308.35;110227;1242;69199;-65
2023/06/25 06:06:25;;;;;;;6.70;3.50;;;;;;;21.73;93.24;97306.23;110318;1240;58939;-65
2023/06/25 06:08:55;;;;;;;6.70;3.90;;;;;;;21.86;92.76;97302.42;110293;1240;58828;-64
2023/06/25 06:11:24;;;;;;;6.00;3.60;;;;;;;22.01;92.23;97304.54;110251;1241;70918;-64
2023/06/25 06:13:53;;;;;;;7.90;3.70;;;;;;;22.07;91.40;97296.45;110249;1244;70038;-66
2023/06/25 06:16:25;;;;;;;7.50;3.60;;;;;;;22.22;90.02;97294.83;110247;1242;68869;-66
2023/06/25 06:18:54;;;;;;;7.30;3.60;;;;;;;22.50;90.67;97290.73;110255;1240;58871;-64
2023/06/25 06:21:23;;;;;;;5.90;3.10;;;;;;;22.82;87.83;97286.45;110320;1242;58933;-64
2023/06/25 06:23:54;;;;;;;6.50;3.50;;;;;;;23.14;87.70;97289.82;110282;1243;71060;-64
2023/06/25 06:26:24;;;;;;;8.60;3.50;;;;;;;23.48;85.92;97282.48;110231;1243;69805;-65
2023/06/25 06:28:53;;;;;;;;;;;;;;;23.81;83.74;97282.17;110163;1244;69328;-65
2023/06/25 06:31:25;;;;;;;5.80;3.20;;;;;;;23.83;82.00;97283.33;110280;1242;58880;-65
2023/06/25 06:33:57;;;;;;;7.30;3.50;;;;;;;24.36;81.30;97283.70;110243;1242;58804;-65
2023/06/25 06:36:34;;;;;;;7.50;4.00;;;;;;;24.65;78.55;97282.40;110277;1240;70570;-66
2023/06/25 06:39:03;;;;;;;7.00;3.40;;;;;;;24.70;76.18;97279.50;110308;1250;69795;-66
2023/06/25 06:41:32;;;;;;;6.20;4.60;;;;;;;25.06;76.29;97284.63;110303;1242;69755;-65
2023/06/25 06:44:12;;;;;;;8.20;3.50;;;;;;;25.48;74.87;97281.88;110267;1242;58936;-65
2023/06/25 06:46:41;;;;;;;7.50;3.70;;;;;;;25.31;72.26;97284.46;110293;1244;58874;-66
2023/06/25 06:49:11;;;;;;;7.50;3.40;;;;;;;25.48;73.64;97288.52;110282;1242;71070;-65
2023/06/25 06:51:41;;;;;;;7.60;4.00;;;;;;;25.31;73.30;97294.16;110269;1240;70076;-64
2023/06/25 06:54:09;;;;;;;7.00;4.40;;;;;;;24.60;74.88;97296.56;110233;1242;67539;-65
2023/06/25 06:56:39;;;;;;;9.40;4.50;;;;;;;24.22;76.80;97293.66;110287;1244;58832;-66
2023/06/25 06:59:08;;;;;;;5.20;3.60;;;;;;;23.86;78.84;97289.53;110299;1242;58834;-66
2023/06/25 07:01:37;;;;;;;;;;;;;;;23.45;80.95;97282.52;110306;1241;71122;-66
2023/06/25 07:04:06;;;;;;;10.20;4.20;;;;;;;23.38;83.49;97276.61;110347;1243;68395;-66
2023/06/25 07:06:36;;;;;;;;;;;;;;;23.61;82.91;97274.61;110301;1250;69843;-66
2023/06/25 07:09:05;;;;;;;;;;;;;;;23.74;81.37;97271.64;110277;1240;58863;-65
2023/06/25 07:11:34;;;;;;;9.40;4.10;;;;;;;23.86;81.34;97262.85;110288;1240;58999;-64
2023/06/25 07:14:03;;;;;;;9.50;4.40;;;;;;;23.93;79.76;97261.73;110408;1243;69723;-66
2023/06/25 07:16:33;;;;;;;8.20;4.40;;;;;;;24.03;80.30;97258.27;110340;1244;69656;-66
2023/06/25 07:19:03;;;;;;;9.40;4.70;;;;;;;24.11;80.01;97258.77;110294;1241;69399;-65
2023/06/25 07:32:28;;;;;;;6.70;4.10;;;;;;;24.30;78.96;97256.92;107202;1270;609589;-66
2023/06/25 07:34:57;;;;;;;6.60;3.80;;;;;;;24.18;79.81;97256.52;109467;1244;232299;-64
2023/06/25 07:37:27;;;;;;;5.40;3.70;;;;;;;24.22;80.18;97253.94;109792;1247;57693;-65
2023/06/25 07:39:55;;;;;;;7.00;4.30;;;;;;;24.19;80.28;97251.41;109764;1244;68506;-66
2023/06/25 07:42:25;;;;;;;8.60;4.50;;;;;;;24.36;80.30;97248.14;109632;1251;69183;-67
2023/06/25 07:44:54;;;;;;;7.20;4.00;;;;;;;24.45;79.45;97244.98;109827;1247;68362;-66
2023/06/25 07:47:28;;;;;;;7.60;3.60;;;;;;;24.46;78.48;97240.58;109756;1247;57657;-66
2023/06/25 07:49:57;;;;;;;7.20;4.20;;;;;;;24.45;79.17;97239.42;109778;1247;57656;-63
2023/06/25 07:52:27;;;;;;;7.60;4.60;;;;;;;24.39;79.01;97240.06;109746;1244;69619;-66
2023/06/25 07:54:56;;;;;;;7.90;5.20;;;;;;;24.32;78.94;97237.00;109747;1244;68668;-65
2023/06/25 07:57:26;;;;;;;8.30;4.80;;;;;;;24.22;79.69;97237.10;109756;1244;70212;-65
2023/06/25 07:59:55;;;;;;;10.40;4.60;;;;;;;24.19;80.29;97239.05;109772;1246;58600;-65
2023/06/25 08:02:23;;;;;;;7.70;4.20;;;;;;;24.32;80.10;97233.76;109788;1247;58112;-65
2023/06/25 08:04:53;;;;;;;10.10;4.80;;;;;;;24.50;79.28;97229.73;109875;1244;70108;-64
2023/06/25 08:07:22;;;;;;;8.40;4.50;;;;;;;24.68;78.62;97230.69;109771;1244;69290;-65
2023/06/25 08:09:51;;;;;;;;;;;;;;;25.13;77.13;97229.84;109833;1248;70393;-64
2023/06/25 08:12:27;;;;;;;7.80;5.10;;;;;;;25.39;75.83;97230.12;109801;1247;58118;-67
2023/06/25 08:14:57;;;;;;;;;;;;;;;25.34;74.40;97222.75;109794;1246;58082;-65
2023/06/25 08:17:26;;;;;;;8.30;4.40;;;;;;;25.51;73.08;97223.61;109786;1244;68956;-66
2023/06/25 08:19:55;;;;;;;;;;;;;;;25.61;72.61;97222.63;109745;1244;69400;-66
2023/06/25 08:22:24;;;;;;;;;;;;;;;25.29;72.55;97220.88;109837;1245;69384;-65
2023/06/25 08:24:55;;;;;;;8.20;4.40;;;;;;;25.64;72.57;97218.38;109738;1248;58236;-64
2023/06/25 08:27:24;;;;;;;6.40;3.90;;;;;;;25.70;73.22;97215.25;109777;1246;57994;-65
2023/06/25 08:29:53;;;;;;;;;;;;;;;25.97;72.18;97209.77;109840;1244;70168;-64
2023/06/25 08:32:22;;;;;;;5.10;3.60;;;;;;;26.08;70.41;97203.46;109736;1247;69223;-65
2023/06/25 08:34:51;;;;;;;;;;;;;;;26.28;70.73;97199.54;109798;1245;68117;-65
2023/06/25 08:37:21;;;;;;;6.90;3.50;;;;;;;26.15;69.56;97202.63;109743;1244;58202;-66
2023/06/25 08:39:49;;;;;;;7.70;4.10;;;;;;;25.99;71.36;97200.80;109754;1245;58206;-66
2023/06/25 08:42:18;;;;;;;;;;;;;;;26.13;71.66;97198.04;109779;1244;67849;-65
2023/06/25 08:44:48;;;;;;;5.40;3.50;;;;;;;26.50;70.02;97193.81;109764;1248;67647;-66
2023/06/25 08:47:19;;;;;;;;;;;;;;;26.79;70.20;97193.05;109772;1246;69157;-66
2023/06/25 08:49:53;;;;;;;5.60;3.60;;;;;;;26.89;70.09;97180.01;109850;1244;58076;-65
2023/06/25 08:52:24;;;;;;;6.40;4.00;;;;;;;27.05;68.34;97178.02;109821;1244;58096;-66
2023/06/25 08:54:53;;;;;;;7.10;3.80;;;;;;;26.80;69.25;97176.21;109946;1247;69781;-63
2023/06/25 08:57:22;;;;;;;6.60;3.60;;;;;;;27.26;68.20;97178.90;109782;1248;69053;-65
2023/06/25 08:59:52;;;;;;;7.80;3.80;;;;;;;27.42;65.89;97175.23;109788;1244;69850;-67
2023/06/25 09:02:21;;;;;;;4.50;3.20;;;;;;;27.45;64.94;97172.48;109737;1247;58083;-66
2023/06/25 09:04:50;;;;;;;7.30;3.30;;;;;;;27.54;66.10;97167.80;109799;1248;58077;-67
2023/06/25 09:07:19;;;;;;;;;;;;;;;27.20;64.45;97164.34;109931;1244;69274;-65
2023/06/25 09:09:53;;;;;;;7.60;4.10;;;;;;;26.84;64.66;97160.57;109908;1244;68385;-66
2023/06/25 09:12:26;;;;;;;6.00;3.50;;;;;;;26.56;64.36;97167.05;109787;1244;69936;-65
2023/06/25 09:14:56;;;;;;;5.70;3.40;;;;;;;26.85;63.97;97162.73;109738;1248;58057;-63
2023/06/25 09:17:25;;;;;;;6.40;2.80;;;;;;;27.11;65.18;97160.73;109730;1248;58047;-65
2023/06/25 09:19:55;;;;;;;5.30;3.30;;;;;;;27.38;65.35;97158.77;109742;1245;69930;-66
2023/06/25 09:22:24;;;;;;;;;;;;;;;27.62;64.99;97157.63;109811;1244;69831;-66
2023/06/25 09:24:53;;;;;;;;;;;;;;;27.79;64.33;97155.84;109769;1246;69856;-65
2023/06/25 09:27:22;;;;;;;7.20;4.40;;;;;;;27.83;64.24;97157.57;109754;1247;58147;-66
2023/06/25 09:29:56;;;;;;;6.20;3.40;;;;;;;27.64;63.68;97151.43;109745;1247;58079;-65
2023/06/25 09:32:25;;;;;;;4.20;3.20;;;;;;;27.37;64.63;97152.55;109767;1244;70433;-65
2023/06/25 09:34:54;;;;;;;6.10;4.30;;;;;;;27.28;64.98;97150.83;109860;1247;69399;-64
2023/06/25 09:37:23;;;;;;;5.10;4.20;;;;;;;27.18;65.66;97143.50;109740;1248;69765;-66
2023/06/25 09:39:52;;;;;;;5.90;3.50;;;;;;;27.63;65.94;97134.39;109790;1244;58150;-66
2023/06/25 09:42:22;;;;;;;6.80;3.80;;;;;;;28.34;64.07;97131.70;109749;1245;58127;-65
2023/06/25 09:44:52;;;;;;;5.10;3.30;;;;;;;28.89;61.92;97124.25;109760;1244;70460;-65
2023/06/25 09:47:22;;;;;;;5.30;3.70;;;;;;;28.47;59.26;97121.69;109763;1248;69230;-67
2023/06/25 09:49:52;;;;;;;4.90;3.40;;;;;;;28.21;58.81;97112.41;109831;1244;69262;-67
2023/06/25 09:52:24;;;;;;;7.10;3.70;;;;;;;28.29;59.78;97113.06;110164;1244;58148;-65
2023/06/25 09:54:53;;;;;;;6.60;3.20;;;;;;;28.85;58.07;97111.48;110147;1243;58138;-66
2023/06/25 09:57:24;;;;;;;6.90;3.20;;;;;;;29.38;57.91;97107.67;110111;1243;69849;-66
2023/06/25 09:59:53;;;;;;;6.50;3.50;;;;;;;29.28;55.77;97107.35;110124;1244;69729;-65
2023/06/25 10:02:23;;;;;;;5.70;2.80;;;;;;;29.44;56.73;97103.96;110046;1244;69394;-66
2023/06/25 10:04:52;;;;;;;5.60;2.90;;;;;;;29.35;57.39;97106.29;110106;1244;58099;-65
2023/06/25 10:07:23;;;;;;;;;;;;;;;29.41;57.17;97102.61;110150;1241;58149;-67
2023/06/25 10:09:54;;;;;;;4.90;2.60;;;;;;;29.47;57.27;97098.01;110127;1241;69766;-65
2023/06/25 10:12:23;;;;;;;7.00;3.80;;;;;;;29.56;55.96;97086.29;110138;1243;69252;-66
2023/06/25 10:14:54;;;;;;;4.80;3.00;;;;;;;29.29;55.84;97081.61;110102;1243;69351;-66
2023/06/25 10:17:23;;;;;;;6.50;3.10;;;;;;;29.12;56.18;97078.01;110102;1244;58141;-67
2023/06/25 10:19:57;;;;;;;6.70;3.00;;;;;;;28.82;57.06;97072.04;110158;1243;58489;-67
2023/06/25 10:22:27;;;;;;;4.10;3.10;;;;;;;28.14;57.46;97064.34;109941;1241;69769;-65
2023/06/25 10:24:56;;;;;;;5.90;3.10;;;;;;;27.46;58.16;97064.65;110134;1243;69255;-64
2023/06/25 10:27:25;;;;;;;5.00;2.60;;;;;;;27.41;60.00;97076.61;110128;1244;68697;-65
2023/06/25 10:29:56;;;;;;;5.20;2.80;;;;;;;27.28;60.75;97089.73;110111;1244;58096;-65
2023/06/25 10:32:28;;;;;;;3.90;2.60;;;;;;;27.19;61.35;97099.48;110184;1241;58140;-67
2023/06/25 10:35:03;;;;;;;6.40;2.80;;;;;;;26.83;63.36;97104.19;110165;1244;69731;-65
2023/06/25 10:37:34;;;;;;;5.00;3.20;;;;;;;26.39;66.32;97113.53;110214;1243;68858;-66
2023/06/25 10:40:06;;;;;;;5.30;3.50;;;;;;;25.87;66.79;97123.02;110187;1241;69870;-66
2023/06/25 10:55:02;;;;;;;5.50;3.10;;;;;;;22.97;76.47;97174.41;107257;1271;609751;-66
2023/06/25 10:57:31;;;;;;;;;;;;;;;21.83;81.31;97184.23;108703;1255;354050;-67
2023/06/25 11:00:00;;;;;;;9.40;3.20;;;;;;;21.37;84.71;97185.45;109219;1255;58038;-66
2023/06/25 11:02:30;;;;;;;6.60;3.40;;;;;;;21.01;88.76;97178.98;109134;1255;69243;-65
2023/06/25 11:04:59;;;;;;;8.70;3.60;;;;;;;20.62;95.14;97182.08;109374;1253;69920;-66
2023/06/25 11:07:28;;;;;;;7.00;3.60;;;;;;;20.29;99.81;97184.16;109400;1254;68298;-65
2023/06/25 11:10:00;;;;;;;;;;;;;;;20.07;99.86;97187.23;109358;1253;58006;-66
2023/06/25 11:12:30;;;;;;;7.50;3.80;;;;;;;19.87;100.00;97179.81;109329;1251;57723;-65
2023/06/25 11:14:59;;;;;;;;;;;;;;;19.79;100.00;97171.70;109442;1251;69445;-65
2023/06/25 11:17:28;;;;;;;4.50;2.90;;;;;;;19.79;100.00;97166.77;109421;1251;69439;-65
2023/06/25 11:19:57;;;;;;;5.00;3.00;;;;;;;19.87;100.00;97164.47;109304;1255;69278;-64
2023/06/25 11:22:27;;;;;;;;;;;;;;;19.97;100.00;97163.14;109329;1253;58133;-65
2023/06/25 11:24:57;;;;;;;6.00;2.70;;;;;;;20.09;100.00;97163.55;110146;1246;58091;-67
2023/06/25 11:27:28;;;;;;;4.20;3.10;;;;;;;20.22;99.88;97157.54;110090;1241;70344;-65
2023/06/25 11:30:03;;;;;;;6.90;3.20;;;;;;;20.38;100.00;97156.38;110113;1245;69773;-64
2023/06/25 11:32:32;;;;;;;4.90;3.40;;;;;;;20.55;100.00;97153.05;110113;1243;69395;-65
2023/06/25 11:35:17;;;;;;;5.30;3.40;;;;;;;20.68;100.00;97149.35;110209;1241;58183;-65
2023/06/25 11:37:48;;;;;;;5.10;3.80;;;;;;;20.80;100.00;97144.15;110125;1245;58134;-65
2023/06/25 11:40:25;;;;;;;6.30;4.00;;;;;;;20.84;100.00;97143.39;110132;1241;70251;-65
2023/06/25 11:42:55;;;;;;;6.20;4.10;;;;;;;20.93;100.00;97153.15;110162;1241;69642;-65
2023/06/25 11:45:24;;;;;;;8.60;5.30;;;;;;;20.98;100.00;97165.61;110142;1246;69834;-65
2023/06/25 11:47:54;;;;;;;5.50;4.40;;;;;;;21.00;100.00;97175.85;110093;1245;58095;-64
2023/06/25 11:50:24;;;;;;;7.10;4.20;;;;;;;20.96;100.00;97169.02;110161;1241;58471;-66
2023/06/25 11:52:55;;;;;;;5.70;4.80;;;;;;;20.88;100.00;97162.20;110115;1245;70210;-66
2023/06/25 11:55:24;;;;;;;5.10;3.90;;;;;;;20.87;100.00;97153.11;110065;1244;69719;-66
2023/06/25 11:57:53;;;;;;;8.10;3.80;;;;;;;20.88;100.00;97150.88;110120;1244;69781;-65
2023/06/25 12:00:22;;;;;;;7.00;4.50;;;;;;;20.88;100.00;97154.30;110109;1244;58166;-65
2023/06/25 12:02:51;;;;;;;5.80;3.90;;;;;;;20.82;100.00;97149.09;110060;1244;58125;-65
2023/06/25 12:05:20;;;;;;;5.00;3.80;;;;;;;20.86;100.00;97142.64;110095;1244;69162;-65